Detall de PIREP

Printer-friendly versionPDF version

[2012/04/05 14:11:00]
Flight IATA:CT1004
Pilot Number:037
Company ICAO:CAT
Aircraft Type:B752/E
PAX:152
Departing Airport: LEPA
Destination Airport: LROP
Alternate Airport:LRCK
Online: VATSIM
Route:MORSS UM603 ALG UL5 TUSET

Flight Level:F370
No Slew and time accel
No pause
Crash detect
Detect pilot in Cockpit between each 30 and 45 minutes
14:11 Zero fuel Weight: 172353 Lbs, Fuel Weight: 35092 Lbs
14:11 VATSIM:LEPA 051400Z 21009KT 170V260 9999 FEW012 FEW018TCU 18/13 Q1008 NOSIG
14:11 VATSIM:LROP 051400Z 22003KT 140V290 CAVOK 26/05 Q1009 880///95 NOSIG
14:23 Parking Brakes off
14:34 Take-off
14:34 Take off Weight: 206075 Lbs
14:34 Wind: 220º @ 010 Knots Heading: 237º
14:34 POS N39º 33´ 16´´ E002º 43´ 36´´
14:34 Gear Up: 195 Knots
14:34 Flaps:2 at 195 Knots
14:34 Flaps:1 at 215 Knots
14:35 Flaps:0 at 223 Knots
14:49 Wind:210º@036 Knots Heading: 061º Ground Speed: 502 Knots Altitude 30613 ft
14:54 TOC
14:54 Fuel Weight: 28736 Lb
15:04 Wind:219º@016 Knots Heading: 075º Ground Speed: 474 Knots Altitude 36856 ft
15:19 Wind:090º@015 Knots Heading: 068º Ground Speed: 452 Knots Altitude 36870 ft
15:34 Wind:215º@018 Knots Heading: 070º Ground Speed: 477 Knots Altitude 36847 ft
15:49 Wind:045º@015 Knots Heading: 057º Ground Speed: 449 Knots Altitude 36850 ft
16:04 Wind:147º@046 Knots Heading: 061º Ground Speed: 463 Knots Altitude 36843 ft
16:19 Wind:070º@035 Knots Heading: 071º Ground Speed: 433 Knots Altitude 36843 ft
16:34 Wind:125º@033 Knots Heading: 072º Ground Speed: 451 Knots Altitude 36824 ft
16:49 Wind:154º@022 Knots Heading: 096º Ground Speed: 458 Knots Altitude 36876 ft
16:53 TOD
16:53 Fuel Weight: 14625 Lb
17:03 Flaps:1 at 216 Knots
17:04 Wind:129º@008 Knots Heading: 097º Ground Speed: 217 Knots Altitude 3264 ft
17:04 Flaps:2 at 192 Knots
17:05 Flaps:3 at 182 Knots
17:05 Gear Down: 180 Knots
17:07 Flaps:4 at 160 Knots
17:07 Flaps:5 at 143 Knots
17:08 TouchDown:Rate -219 ft/min Speed: 132 Knots
17:09 VATSIM:LROP 051700Z 13003KT CAVOK 20/08 Q1008 880///95 NOSIG
17:09 Land
17:09 Wind:115º@005 Knots
17:09 Heading: 082º
17:09 Flight Duration: 02:35
17:09 Landing Weight: 185756 Lbs
17:09 POS N44º 33´ 57´´ E026º 05´ 36´´
17:18 Parking brakes on
17:18 Block to Block Duration: 02:55
17:18 Final Fuel: 12306 Lbls
17:18 Spent Fuel: 22786 Lbls
17:18 Flight Length: 890 NM
17:18 TOD Land Length: 81 NM

Exportar CSV

Powered by Drupal - Modified by Danger4k